Hood River, Oregon
Current Conditions -  °F | °C
As of 11:59 PM on Wednesday 17 Dec 2014 (Local Time) from K4S2 Reporting Station
Haze Haze  
Wind Chill: 39°   Ceiling: 400
Heat Index: 39°   Visibility: 3mi
Dew Point: 37°   Wind: 0mph
Humidity: 93%   Direction: NA
Pressure: 30.03"   Gusts: NA
Location:  45.71°N, 121.52°W
Report Text: K4S2 180759Z AUTO 00000KT 3SM BR OVC004 04/03 A3003 RMK AO2 SLP183 T00400030
Loading
Personal Weather Stations






























Interactive Weather Map New forecast layout! Learn more

10-Day Weather Forecast

Advertisements
Track Severe Weather on mobile